sensor_id;sensor_type;location;lat;lon;timestamp;P1;durP1;ratioP1;P2;durP2;ratioP2
673;SDS011;319;48.764;9.174;2023-01-16T00:01:52;5.70;;;5.60;;
673;SDS011;319;48.764;9.174;2023-01-16T00:04:26;6.27;;;6.17;;
673;SDS011;319;48.764;9.174;2023-01-16T00:06:53;6.60;;;6.50;;
673;SDS011;319;48.764;9.174;2023-01-16T00:09:21;6.80;;;6.60;;
673;SDS011;319;48.764;9.174;2023-01-16T00:11:48;6.63;;;6.53;;
673;SDS011;319;48.764;9.174;2023-01-16T00:14:15;6.57;;;6.47;;
673;SDS011;319;48.764;9.174;2023-01-16T00:16:41;6.53;;;6.43;;
673;SDS011;319;48.764;9.174;2023-01-16T00:19:08;6.80;;;6.60;;
673;SDS011;319;48.764;9.174;2023-01-16T00:21:35;7.00;;;6.80;;
673;SDS011;319;48.764;9.174;2023-01-16T00:24:02;6.70;;;6.60;;
673;SDS011;319;48.764;9.174;2023-01-16T00:26:32;6.70;;;6.60;;
673;SDS011;319;48.764;9.174;2023-01-16T00:28:59;6.10;;;6.00;;
673;SDS011;319;48.764;9.174;2023-01-16T00:31:27;7.10;;;6.90;;
673;SDS011;319;48.764;9.174;2023-01-16T00:33:53;7.10;;;6.90;;
673;SDS011;319;48.764;9.174;2023-01-16T00:36:20;7.10;;;6.90;;
673;SDS011;319;48.764;9.174;2023-01-16T00:38:47;6.90;;;6.70;;
673;SDS011;319;48.764;9.174;2023-01-16T00:41:14;7.20;;;7.00;;
673;SDS011;319;48.764;9.174;2023-01-16T00:43:42;7.50;;;7.30;;
673;SDS011;319;48.764;9.174;2023-01-16T00:46:09;7.13;;;6.93;;
673;SDS011;319;48.764;9.174;2023-01-16T00:48:36;7.00;;;6.80;;
673;SDS011;319;48.764;9.174;2023-01-16T00:51:03;6.67;;;6.57;;
673;SDS011;319;48.764;9.174;2023-01-16T00:53:30;6.90;;;6.70;;
673;SDS011;319;48.764;9.174;2023-01-16T00:55:56;7.20;;;7.00;;
673;SDS011;319;48.764;9.174;2023-01-16T00:58:23;7.20;;;7.00;;
673;SDS011;319;48.764;9.174;2023-01-16T01:00:51;6.83;;;6.63;;
673;SDS011;319;48.764;9.174;2023-01-16T01:03:18;6.90;;;6.70;;
673;SDS011;319;48.764;9.174;2023-01-16T01:05:45;6.97;;;6.77;;
673;SDS011;319;48.764;9.174;2023-01-16T01:08:12;6.97;;;6.77;;
673;SDS011;319;48.764;9.174;2023-01-16T01:10:39;6.60;;;6.50;;
673;SDS011;319;48.764;9.174;2023-01-16T01:13:06;6.67;;;6.57;;
673;SDS011;319;48.764;9.174;2023-01-16T01:15:33;6.60;;;6.50;;
673;SDS011;319;48.764;9.174;2023-01-16T01:18:02;6.30;;;6.20;;
673;SDS011;319;48.764;9.174;2023-01-16T01:20:29;6.30;;;6.20;;
673;SDS011;319;48.764;9.174;2023-01-16T01:22:55;6.30;;;6.20;;
673;SDS011;319;48.764;9.174;2023-01-16T01:25:22;6.80;;;6.60;;
673;SDS011;319;48.764;9.174;2023-01-16T01:27:49;6.50;;;6.40;;
673;SDS011;319;48.764;9.174;2023-01-16T01:30:16;6.20;;;6.10;;
673;SDS011;319;48.764;9.174;2023-01-16T01:32:44;6.10;;;6.00;;
673;SDS011;319;48.764;9.174;2023-01-16T01:35:12;6.33;;;6.23;;
673;SDS011;319;48.764;9.174;2023-01-16T01:37:39;6.20;;;6.10;;
673;SDS011;319;48.764;9.174;2023-01-16T01:40:06;6.20;;;6.10;;
673;SDS011;319;48.764;9.174;2023-01-16T01:42:37;6.00;;;5.90;;
673;SDS011;319;48.764;9.174;2023-01-16T01:45:11;5.63;;;5.53;;
673;SDS011;319;48.764;9.174;2023-01-16T01:47:43;6.30;;;6.20;;
673;SDS011;319;48.764;9.174;2023-01-16T01:50:16;6.30;;;6.20;;
673;SDS011;319;48.764;9.174;2023-01-16T01:52:47;5.80;;;5.70;;
673;SDS011;319;48.764;9.174;2023-01-16T01:55:15;4.80;;;4.70;;
673;SDS011;319;48.764;9.174;2023-01-16T01:57:42;5.17;;;5.07;;
673;SDS011;319;48.764;9.174;2023-01-16T02:00:14;7.10;;;6.90;;
673;SDS011;319;48.764;9.174;2023-01-16T02:02:45;2.73;;;2.73;;
673;SDS011;319;48.764;9.174;2023-01-16T02:05:18;7.03;;;6.83;;
673;SDS011;319;48.764;9.174;2023-01-16T02:07:49;8.10;;;7.90;;
673;SDS011;319;48.764;9.174;2023-01-16T02:10:20;7.37;;;7.17;;
673;SDS011;319;48.764;9.174;2023-01-16T02:12:53;7.90;;;7.70;;
673;SDS011;319;48.764;9.174;2023-01-16T02:15:21;8.80;;;8.60;;
673;SDS011;319;48.764;9.174;2023-01-16T02:17:49;8.53;;;8.33;;
673;SDS011;319;48.764;9.174;2023-01-16T02:20:36;8.67;;;8.47;;
673;SDS011;319;48.764;9.174;2023-01-16T02:26:30;8.60;;;8.40;;
673;SDS011;319;48.764;9.174;2023-01-16T02:29:36;9.30;;;9.10;;
673;SDS011;319;48.764;9.174;2023-01-16T02:32:17;8.70;;;8.50;;
673;SDS011;319;48.764;9.174;2023-01-16T02:34:57;9.40;;;9.20;;
673;SDS011;319;48.764;9.174;2023-01-16T02:37:37;9.10;;;8.90;;
673;SDS011;319;48.764;9.174;2023-01-16T02:40:13;9.07;;;8.87;;
673;SDS011;319;48.764;9.174;2023-01-16T02:42:48;8.90;;;8.70;;
673;SDS011;319;48.764;9.174;2023-01-16T02:45:27;9.10;;;8.90;;
673;SDS011;319;48.764;9.174;2023-01-16T02:48:02;9.20;;;9.00;;
673;SDS011;319;48.764;9.174;2023-01-16T02:50:51;9.30;;;9.10;;
673;SDS011;319;48.764;9.174;2023-01-16T02:53:26;8.20;;;8.00;;
673;SDS011;319;48.764;9.174;2023-01-16T02:55:55;7.27;;;7.07;;
673;SDS011;319;48.764;9.174;2023-01-16T02:58:28;6.17;;;6.07;;
673;SDS011;319;48.764;9.174;2023-01-16T03:00:57;6.90;;;6.70;;
673;SDS011;319;48.764;9.174;2023-01-16T03:03:36;6.80;;;6.60;;
673;SDS011;319;48.764;9.174;2023-01-16T03:06:06;5.80;;;5.70;;
673;SDS011;319;48.764;9.174;2023-01-16T03:08:51;5.60;;;5.50;;
673;SDS011;319;48.764;9.174;2023-01-16T03:11:27;5.50;;;5.40;;
673;SDS011;319;48.764;9.174;2023-01-16T03:14:00;5.90;;;5.80;;
673;SDS011;319;48.764;9.174;2023-01-16T03:16:37;6.13;;;6.03;;
673;SDS011;319;48.764;9.174;2023-01-16T03:19:14;5.80;;;5.70;;
673;SDS011;319;48.764;9.174;2023-01-16T03:21:53;7.00;;;6.80;;
673;SDS011;319;48.764;9.174;2023-01-16T03:24:33;6.07;;;5.97;;
673;SDS011;319;48.764;9.174;2023-01-16T03:27:08;5.93;;;5.83;;
673;SDS011;319;48.764;9.174;2023-01-16T03:29:44;7.00;;;6.80;;
673;SDS011;319;48.764;9.174;2023-01-16T03:32:21;6.50;;;6.40;;
673;SDS011;319;48.764;9.174;2023-01-16T03:35:00;6.50;;;6.40;;
673;SDS011;319;48.764;9.174;2023-01-16T03:37:30;6.90;;;6.70;;
673;SDS011;319;48.764;9.174;2023-01-16T03:40:02;6.73;;;6.60;;
673;SDS011;319;48.764;9.174;2023-01-16T03:42:32;7.20;;;7.00;;
673;SDS011;319;48.764;9.174;2023-01-16T03:45:03;6.43;;;6.33;;
673;SDS011;319;48.764;9.174;2023-01-16T03:47:36;6.40;;;6.30;;
673;SDS011;319;48.764;9.174;2023-01-16T03:50:10;6.60;;;6.50;;
673;SDS011;319;48.764;9.174;2023-01-16T03:52:39;6.20;;;6.10;;
673;SDS011;319;48.764;9.174;2023-01-16T03:55:12;6.50;;;6.40;;
673;SDS011;319;48.764;9.174;2023-01-16T03:57:44;6.90;;;6.70;;
673;SDS011;319;48.764;9.174;2023-01-16T04:00:16;6.40;;;6.30;;
673;SDS011;319;48.764;9.174;2023-01-16T04:02:45;6.83;;;6.63;;
673;SDS011;319;48.764;9.174;2023-01-16T04:05:20;7.20;;;7.00;;
673;SDS011;319;48.764;9.174;2023-01-16T04:07:52;7.20;;;7.00;;
673;SDS011;319;48.764;9.174;2023-01-16T04:10:24;6.00;;;5.90;;
673;SDS011;319;48.764;9.174;2023-01-16T04:12:53;6.50;;;6.40;;
673;SDS011;319;48.764;9.174;2023-01-16T04:15:23;5.60;;;5.50;;
673;SDS011;319;48.764;9.174;2023-01-16T04:17:51;7.27;;;7.07;;
673;SDS011;319;48.764;9.174;2023-01-16T04:20:20;7.03;;;6.83;;
673;SDS011;319;48.764;9.174;2023-01-16T04:22:49;6.63;;;6.53;;
673;SDS011;319;48.764;9.174;2023-01-16T04:25:17;6.30;;;6.20;;
673;SDS011;319;48.764;9.174;2023-01-16T04:27:45;4.03;;;3.93;;
673;SDS011;319;48.764;9.174;2023-01-16T04:30:12;3.87;;;3.77;;
673;SDS011;319;48.764;9.174;2023-01-16T04:32:40;5.10;;;5.00;;
673;SDS011;319;48.764;9.174;2023-01-16T04:35:07;4.20;;;4.10;;
673;SDS011;319;48.764;9.174;2023-01-16T04:37:36;3.73;;;3.63;;
673;SDS011;319;48.764;9.174;2023-01-16T04:40:03;3.20;;;3.10;;
673;SDS011;319;48.764;9.174;2023-01-16T04:42:33;4.40;;;4.30;;
673;SDS011;319;48.764;9.174;2023-01-16T04:45:00;3.90;;;3.80;;
673;SDS011;319;48.764;9.174;2023-01-16T04:47:27;3.47;;;3.37;;
673;SDS011;319;48.764;9.174;2023-01-16T04:49:54;3.63;;;3.53;;
673;SDS011;319;48.764;9.174;2023-01-16T04:52:20;4.03;;;3.93;;
673;SDS011;319;48.764;9.174;2023-01-16T04:54:48;3.43;;;3.33;;
673;SDS011;319;48.764;9.174;2023-01-16T04:57:16;2.80;;;2.80;;
673;SDS011;319;48.764;9.174;2023-01-16T04:59:42;2.80;;;2.80;;
673;SDS011;319;48.764;9.174;2023-01-16T05:02:09;2.70;;;2.70;;
673;SDS011;319;48.764;9.174;2023-01-16T05:04:36;2.83;;;2.83;;
673;SDS011;319;48.764;9.174;2023-01-16T05:07:05;3.00;;;3.00;;
673;SDS011;319;48.764;9.174;2023-01-16T05:09:32;2.90;;;2.90;;
673;SDS011;319;48.764;9.174;2023-01-16T05:12:00;3.10;;;3.00;;
673;SDS011;319;48.764;9.174;2023-01-16T05:14:27;2.50;;;2.50;;
673;SDS011;319;48.764;9.174;2023-01-16T05:16:54;2.40;;;2.40;;
673;SDS011;319;48.764;9.174;2023-01-16T05:19:21;2.77;;;2.77;;
673;SDS011;319;48.764;9.174;2023-01-16T05:21:48;5.03;;;4.93;;
673;SDS011;319;48.764;9.174;2023-01-16T05:24:14;3.17;;;3.07;;
673;SDS011;319;48.764;9.174;2023-01-16T05:26:41;2.40;;;2.40;;
673;SDS011;319;48.764;9.174;2023-01-16T05:29:10;2.90;;;2.90;;
673;SDS011;319;48.764;9.174;2023-01-16T05:31:36;3.40;;;3.30;;
673;SDS011;319;48.764;9.174;2023-01-16T05:34:03;3.20;;;3.10;;
673;SDS011;319;48.764;9.174;2023-01-16T05:36:30;2.20;;;2.20;;
673;SDS011;319;48.764;9.174;2023-01-16T05:38:57;2.20;;;2.20;;
673;SDS011;319;48.764;9.174;2023-01-16T05:41:23;2.33;;;2.33;;
673;SDS011;319;48.764;9.174;2023-01-16T05:43:50;2.00;;;2.00;;
673;SDS011;319;48.764;9.174;2023-01-16T05:46:18;2.30;;;2.30;;
673;SDS011;319;48.764;9.174;2023-01-16T05:48:45;2.20;;;2.20;;
673;SDS011;319;48.764;9.174;2023-01-16T05:51:12;2.20;;;2.20;;
673;SDS011;319;48.764;9.174;2023-01-16T05:53:40;2.10;;;2.10;;
673;SDS011;319;48.764;9.174;2023-01-16T05:56:07;2.10;;;2.10;;
673;SDS011;319;48.764;9.174;2023-01-16T05:58:36;2.10;;;2.10;;
673;SDS011;319;48.764;9.174;2023-01-16T06:01:03;2.10;;;2.10;;
673;SDS011;319;48.764;9.174;2023-01-16T06:03:31;2.40;;;2.40;;
673;SDS011;319;48.764;9.174;2023-01-16T06:05:58;1.90;;;1.90;;
673;SDS011;319;48.764;9.174;2023-01-16T06:08:25;2.10;;;2.10;;
673;SDS011;319;48.764;9.174;2023-01-16T06:10:52;1.90;;;1.90;;
673;SDS011;319;48.764;9.174;2023-01-16T06:13:19;2.00;;;2.00;;
673;SDS011;319;48.764;9.174;2023-01-16T06:15:46;2.13;;;2.13;;
673;SDS011;319;48.764;9.174;2023-01-16T06:18:12;2.10;;;2.10;;
673;SDS011;319;48.764;9.174;2023-01-16T06:20:42;2.37;;;2.37;;
673;SDS011;319;48.764;9.174;2023-01-16T06:23:09;2.30;;;2.30;;
673;SDS011;319;48.764;9.174;2023-01-16T06:25:35;2.30;;;2.30;;
673;SDS011;319;48.764;9.174;2023-01-16T06:28:02;2.30;;;2.30;;
673;SDS011;319;48.764;9.174;2023-01-16T06:30:29;2.30;;;2.30;;
673;SDS011;319;48.764;9.174;2023-01-16T06:32:56;2.70;;;2.70;;
673;SDS011;319;48.764;9.174;2023-01-16T06:35:23;2.80;;;2.80;;
673;SDS011;319;48.764;9.174;2023-01-16T06:37:51;2.60;;;2.60;;
673;SDS011;319;48.764;9.174;2023-01-16T06:40:18;2.50;;;2.50;;
673;SDS011;319;48.764;9.174;2023-01-16T06:42:45;2.67;;;2.67;;
673;SDS011;319;48.764;9.174;2023-01-16T06:45:11;2.80;;;2.80;;
673;SDS011;319;48.764;9.174;2023-01-16T06:47:38;2.60;;;2.60;;
673;SDS011;319;48.764;9.174;2023-01-16T06:50:05;2.70;;;2.70;;
673;SDS011;319;48.764;9.174;2023-01-16T06:52:32;2.70;;;2.70;;
673;SDS011;319;48.764;9.174;2023-01-16T06:55:01;2.70;;;2.70;;
673;SDS011;319;48.764;9.174;2023-01-16T06:57:28;2.70;;;2.70;;
673;SDS011;319;48.764;9.174;2023-01-16T06:59:55;2.70;;;2.70;;
673;SDS011;319;48.764;9.174;2023-01-16T07:02:21;2.70;;;2.70;;
673;SDS011;319;48.764;9.174;2023-01-16T07:04:48;2.67;;;2.67;;
673;SDS011;319;48.764;9.174;2023-01-16T07:07:15;2.70;;;2.70;;
673;SDS011;319;48.764;9.174;2023-01-16T07:09:42;2.60;;;2.60;;
673;SDS011;319;48.764;9.174;2023-01-16T07:12:10;2.70;;;2.70;;
673;SDS011;319;48.764;9.174;2023-01-16T07:14:37;2.90;;;2.90;;
673;SDS011;319;48.764;9.174;2023-01-16T07:17:21;2.87;;;2.87;;
673;SDS011;319;48.764;9.174;2023-01-16T07:20:06;2.70;;;2.70;;
673;SDS011;319;48.764;9.174;2023-01-16T07:22:53;2.70;;;2.70;;
673;SDS011;319;48.764;9.174;2023-01-16T07:25:21;2.70;;;2.70;;
673;SDS011;319;48.764;9.174;2023-01-16T07:27:59;2.80;;;2.80;;
673;SDS011;319;48.764;9.174;2023-01-16T07:30:27;2.80;;;2.80;;
673;SDS011;319;48.764;9.174;2023-01-16T07:32:54;2.97;;;2.97;;
673;SDS011;319;48.764;9.174;2023-01-16T07:35:20;2.80;;;2.80;;
673;SDS011;319;48.764;9.174;2023-01-16T07:37:47;2.90;;;2.90;;
673;SDS011;319;48.764;9.174;2023-01-16T07:40:15;2.97;;;2.97;;
673;SDS011;319;48.764;9.174;2023-01-16T07:42:42;2.93;;;2.93;;
673;SDS011;319;48.764;9.174;2023-01-16T07:45:10;2.80;;;2.80;;
673;SDS011;319;48.764;9.174;2023-01-16T07:47:37;2.93;;;2.93;;
673;SDS011;319;48.764;9.174;2023-01-16T07:50:04;2.80;;;2.80;;
673;SDS011;319;48.764;9.174;2023-01-16T07:52:31;3.10;;;3.00;;
673;SDS011;319;48.764;9.174;2023-01-16T07:54:58;2.90;;;2.90;;
673;SDS011;319;48.764;9.174;2023-01-16T07:57:25;2.80;;;2.80;;
673;SDS011;319;48.764;9.174;2023-01-16T07:59:52;2.90;;;2.90;;
673;SDS011;319;48.764;9.174;2023-01-16T08:02:21;3.20;;;3.10;;
673;SDS011;319;48.764;9.174;2023-01-16T08:04:48;3.07;;;2.97;;
673;SDS011;319;48.764;9.174;2023-01-16T08:07:15;2.80;;;2.80;;
673;SDS011;319;48.764;9.174;2023-01-16T08:09:41;2.90;;;2.90;;
673;SDS011;319;48.764;9.174;2023-01-16T08:12:08;2.90;;;2.90;;
673;SDS011;319;48.764;9.174;2023-01-16T08:14:35;3.20;;;3.10;;
673;SDS011;319;48.764;9.174;2023-01-16T08:17:02;3.30;;;3.20;;
673;SDS011;319;48.764;9.174;2023-01-16T08:19:30;3.50;;;3.40;;
673;SDS011;319;48.764;9.174;2023-01-16T08:21:57;3.67;;;3.57;;
673;SDS011;319;48.764;9.174;2023-01-16T08:24:24;3.50;;;3.40;;
673;SDS011;319;48.764;9.174;2023-01-16T08:26:51;3.40;;;3.30;;
673;SDS011;319;48.764;9.174;2023-01-16T08:29:18;3.60;;;3.50;;
673;SDS011;319;48.764;9.174;2023-01-16T08:31:45;3.77;;;3.67;;
673;SDS011;319;48.764;9.174;2023-01-16T08:34:12;3.70;;;3.60;;
673;SDS011;319;48.764;9.174;2023-01-16T08:36:40;3.60;;;3.50;;
673;SDS011;319;48.764;9.174;2023-01-16T08:39:08;3.50;;;3.40;;
673;SDS011;319;48.764;9.174;2023-01-16T08:41:35;3.70;;;3.60;;
673;SDS011;319;48.764;9.174;2023-01-16T08:44:19;3.70;;;3.60;;
673;SDS011;319;48.764;9.174;2023-01-16T08:47:04;4.00;;;3.90;;
673;SDS011;319;48.764;9.174;2023-01-16T08:49:51;4.30;;;4.20;;
673;SDS011;319;48.764;9.174;2023-01-16T08:52:37;4.20;;;4.10;;
673;SDS011;319;48.764;9.174;2023-01-16T08:55:05;4.20;;;4.10;;
673;SDS011;319;48.764;9.174;2023-01-16T08:57:32;4.10;;;4.00;;
673;SDS011;319;48.764;9.174;2023-01-16T09:00:00;4.23;;;4.13;;
673;SDS011;319;48.764;9.174;2023-01-16T09:02:27;5.50;;;5.40;;
673;SDS011;319;48.764;9.174;2023-01-16T09:04:54;7.40;;;7.20;;
673;SDS011;319;48.764;9.174;2023-01-16T09:07:21;7.10;;;6.90;;
673;SDS011;319;48.764;9.174;2023-01-16T09:09:49;6.50;;;6.40;;
673;SDS011;319;48.764;9.174;2023-01-16T09:12:16;6.90;;;6.70;;
673;SDS011;319;48.764;9.174;2023-01-16T09:15:01;7.70;;;7.50;;
673;SDS011;319;48.764;9.174;2023-01-16T09:17:28;7.30;;;7.10;;
673;SDS011;319;48.764;9.174;2023-01-16T09:19:55;13.53;;;13.23;;
673;SDS011;319;48.764;9.174;2023-01-16T09:22:22;4.40;;;4.30;;
673;SDS011;319;48.764;9.174;2023-01-16T09:24:50;5.73;;;5.63;;
673;SDS011;319;48.764;9.174;2023-01-16T09:27:20;9.37;;;9.17;;
673;SDS011;319;48.764;9.174;2023-01-16T09:29:49;5.13;;;5.03;;
673;SDS011;319;48.764;9.174;2023-01-16T09:32:16;7.27;;;7.07;;
673;SDS011;319;48.764;9.174;2023-01-16T09:34:43;7.10;;;6.90;;
673;SDS011;319;48.764;9.174;2023-01-16T09:37:10;7.30;;;7.10;;
673;SDS011;319;48.764;9.174;2023-01-16T09:39:37;7.80;;;7.60;;
673;SDS011;319;48.764;9.174;2023-01-16T09:42:11;7.90;;;7.70;;
673;SDS011;319;48.764;9.174;2023-01-16T09:45:13;7.00;;;6.80;;
673;SDS011;319;48.764;9.174;2023-01-16T09:47:42;7.10;;;6.90;;
673;SDS011;319;48.764;9.174;2023-01-16T09:50:13;7.60;;;7.40;;
673;SDS011;319;48.764;9.174;2023-01-16T09:52:55;9.30;;;9.10;;
673;SDS011;319;48.764;9.174;2023-01-16T09:55:41;8.10;;;7.90;;
673;SDS011;319;48.764;9.174;2023-01-16T09:58:29;9.30;;;9.10;;
673;SDS011;319;48.764;9.174;2023-01-16T10:01:03;9.27;;;9.07;;
673;SDS011;319;48.764;9.174;2023-01-16T10:03:32;9.40;;;9.20;;
673;SDS011;319;48.764;9.174;2023-01-16T10:06:01;9.20;;;9.00;;
673;SDS011;319;48.764;9.174;2023-01-16T10:08:38;12.60;;;12.30;;
673;SDS011;319;48.764;9.174;2023-01-16T10:11:13;13.70;;;13.30;;
673;SDS011;319;48.764;9.174;2023-01-16T10:16:42;13.10;;;12.80;;
673;SDS011;319;48.764;9.174;2023-01-16T10:19:19;13.13;;;12.83;;
673;SDS011;319;48.764;9.174;2023-01-16T10:22:00;12.97;;;12.67;;
673;SDS011;319;48.764;9.174;2023-01-16T10:24:36;12.93;;;12.63;;
673;SDS011;319;48.764;9.174;2023-01-16T10:27:13;13.47;;;13.17;;
673;SDS011;319;48.764;9.174;2023-01-16T10:29:46;13.87;;;13.47;;
673;SDS011;319;48.764;9.174;2023-01-16T10:32:18;14.70;;;14.30;;
673;SDS011;319;48.764;9.174;2023-01-16T10:34:51;14.20;;;13.80;;
673;SDS011;319;48.764;9.174;2023-01-16T10:37:25;14.17;;;13.77;;
673;SDS011;319;48.764;9.174;2023-01-16T10:39:53;13.00;;;12.70;;
673;SDS011;319;48.764;9.174;2023-01-16T10:42:23;13.20;;;12.90;;
673;SDS011;319;48.764;9.174;2023-01-16T10:45:14;14.70;;;14.30;;
673;SDS011;319;48.764;9.174;2023-01-16T10:47:59;12.70;;;12.40;;
673;SDS011;319;48.764;9.174;2023-01-16T10:50:44;13.47;;;13.13;;
673;SDS011;319;48.764;9.174;2023-01-16T10:53:12;14.50;;;14.10;;
673;SDS011;319;48.764;9.174;2023-01-16T10:55:40;14.03;;;13.63;;
673;SDS011;319;48.764;9.174;2023-01-16T10:58:15;14.20;;;13.80;;
673;SDS011;319;48.764;9.174;2023-01-16T11:00:52;14.43;;;14.03;;
673;SDS011;319;48.764;9.174;2023-01-16T11:03:23;15.37;;;14.97;;
673;SDS011;319;48.764;9.174;2023-01-16T11:06:05;14.13;;;13.73;;
673;SDS011;319;48.764;9.174;2023-01-16T11:08:34;14.40;;;14.00;;
673;SDS011;319;48.764;9.174;2023-01-16T11:11:01;13.47;;;13.17;;
673;SDS011;319;48.764;9.174;2023-01-16T11:13:28;13.50;;;13.20;;
673;SDS011;319;48.764;9.174;2023-01-16T11:16:22;14.57;;;14.17;;
673;SDS011;319;48.764;9.174;2023-01-16T11:19:15;15.73;;;15.33;;
673;SDS011;319;48.764;9.174;2023-01-16T11:21:44;14.00;;;13.60;;
673;SDS011;319;48.764;9.174;2023-01-16T11:24:18;13.53;;;13.20;;
673;SDS011;319;48.764;9.174;2023-01-16T11:26:48;13.00;;;12.70;;
673;SDS011;319;48.764;9.174;2023-01-16T11:29:17;13.30;;;13.00;;
673;SDS011;319;48.764;9.174;2023-01-16T11:31:50;13.00;;;12.70;;
673;SDS011;319;48.764;9.174;2023-01-16T11:34:20;13.10;;;12.80;;
673;SDS011;319;48.764;9.174;2023-01-16T11:36:51;12.30;;;12.00;;
673;SDS011;319;48.764;9.174;2023-01-16T11:39:20;12.73;;;12.43;;
673;SDS011;319;48.764;9.174;2023-01-16T11:41:49;12.70;;;12.40;;
673;SDS011;319;48.764;9.174;2023-01-16T11:44:19;12.60;;;12.30;;
673;SDS011;319;48.764;9.174;2023-01-16T11:47:09;11.90;;;11.60;;
673;SDS011;319;48.764;9.174;2023-01-16T11:49:38;12.40;;;12.10;;
673;SDS011;319;48.764;9.174;2023-01-16T11:52:11;12.10;;;11.80;;
673;SDS011;319;48.764;9.174;2023-01-16T11:54:51;12.40;;;12.10;;
673;SDS011;319;48.764;9.174;2023-01-16T11:57:31;11.90;;;11.60;;
673;SDS011;319;48.764;9.174;2023-01-16T12:00:24;12.27;;;11.97;;
673;SDS011;319;48.764;9.174;2023-01-16T12:06:07;12.20;;;11.90;;
673;SDS011;319;48.764;9.174;2023-01-16T12:08:59;11.40;;;11.10;;
673;SDS011;319;48.764;9.174;2023-01-16T12:11:49;10.40;;;10.10;;
673;SDS011;319;48.764;9.174;2023-01-16T12:14:48;9.87;;;9.67;;
673;SDS011;319;48.764;9.174;2023-01-16T12:17:21;11.67;;;11.37;;
673;SDS011;319;48.764;9.174;2023-01-16T12:20:04;12.13;;;11.83;;
673;SDS011;319;48.764;9.174;2023-01-16T12:22:54;11.00;;;10.70;;
673;SDS011;319;48.764;9.174;2023-01-16T12:25:43;11.00;;;10.70;;
673;SDS011;319;48.764;9.174;2023-01-16T12:28:21;11.57;;;11.27;;
673;SDS011;319;48.764;9.174;2023-01-16T12:31:00;9.90;;;9.70;;
673;SDS011;319;48.764;9.174;2023-01-16T12:33:55;11.00;;;10.70;;
673;SDS011;319;48.764;9.174;2023-01-16T12:36:33;11.10;;;10.80;;
673;SDS011;319;48.764;9.174;2023-01-16T12:39:09;12.90;;;12.60;;
673;SDS011;319;48.764;9.174;2023-01-16T12:41:48;12.60;;;12.30;;
673;SDS011;319;48.764;9.174;2023-01-16T12:44:43;12.37;;;12.07;;
673;SDS011;319;48.764;9.174;2023-01-16T12:47:21;12.30;;;12.00;;
673;SDS011;319;48.764;9.174;2023-01-16T12:50:07;11.57;;;11.27;;
673;SDS011;319;48.764;9.174;2023-01-16T12:53:00;11.47;;;11.17;;
673;SDS011;319;48.764;9.174;2023-01-16T12:55:41;12.33;;;12.03;;
673;SDS011;319;48.764;9.174;2023-01-16T12:58:17;11.90;;;11.60;;
673;SDS011;319;48.764;9.174;2023-01-16T13:00:47;12.10;;;11.80;;
673;SDS011;319;48.764;9.174;2023-01-16T13:03:21;10.30;;;10.00;;
673;SDS011;319;48.764;9.174;2023-01-16T13:05:53;11.93;;;11.63;;
673;SDS011;319;48.764;9.174;2023-01-16T13:08:25;11.87;;;11.57;;
673;SDS011;319;48.764;9.174;2023-01-16T13:10:56;12.80;;;12.50;;
673;SDS011;319;48.764;9.174;2023-01-16T13:13:48;12.70;;;12.40;;
673;SDS011;319;48.764;9.174;2023-01-16T13:16:20;12.30;;;12.00;;
673;SDS011;319;48.764;9.174;2023-01-16T13:18:53;12.70;;;12.40;;
673;SDS011;319;48.764;9.174;2023-01-16T13:21:25;12.10;;;11.80;;
673;SDS011;319;48.764;9.174;2023-01-16T13:23:57;12.20;;;11.90;;
673;SDS011;319;48.764;9.174;2023-01-16T13:26:29;12.10;;;11.80;;
673;SDS011;319;48.764;9.174;2023-01-16T13:28:59;8.90;;;8.70;;
673;SDS011;319;48.764;9.174;2023-01-16T13:31:32;9.10;;;8.90;;
673;SDS011;319;48.764;9.174;2023-01-16T13:34:04;9.20;;;9.00;;
673;SDS011;319;48.764;9.174;2023-01-16T13:36:53;9.60;;;9.40;;
673;SDS011;319;48.764;9.174;2023-01-16T13:39:49;9.90;;;9.70;;
673;SDS011;319;48.764;9.174;2023-01-16T13:42:41;10.83;;;10.53;;
673;SDS011;319;48.764;9.174;2023-01-16T13:45:16;10.17;;;9.90;;
673;SDS011;319;48.764;9.174;2023-01-16T13:48:10;10.40;;;10.10;;
673;SDS011;319;48.764;9.174;2023-01-16T13:50:38;11.10;;;10.80;;
673;SDS011;319;48.764;9.174;2023-01-16T13:53:07;10.50;;;10.20;;
673;SDS011;319;48.764;9.174;2023-01-16T13:55:37;10.63;;;10.33;;
673;SDS011;319;48.764;9.174;2023-01-16T13:58:08;11.00;;;10.70;;
673;SDS011;319;48.764;9.174;2023-01-16T14:00:39;10.80;;;10.50;;
673;SDS011;319;48.764;9.174;2023-01-16T14:03:18;11.27;;;10.97;;
673;SDS011;319;48.764;9.174;2023-01-16T14:05:48;10.90;;;10.60;;
673;SDS011;319;48.764;9.174;2023-01-16T14:08:25;10.70;;;10.40;;
673;SDS011;319;48.764;9.174;2023-01-16T14:20:35;10.77;;;10.47;;
673;SDS011;319;48.764;9.174;2023-01-16T14:23:12;11.93;;;11.63;;
673;SDS011;319;48.764;9.174;2023-01-16T14:26:03;11.67;;;11.37;;
673;SDS011;319;48.764;9.174;2023-01-16T14:28:35;10.70;;;10.40;;
673;SDS011;319;48.764;9.174;2023-01-16T14:31:05;12.07;;;11.77;;
673;SDS011;319;48.764;9.174;2023-01-16T14:33:54;11.30;;;11.00;;
673;SDS011;319;48.764;9.174;2023-01-16T14:36:23;10.83;;;10.53;;
673;SDS011;319;48.764;9.174;2023-01-16T14:38:52;12.00;;;11.70;;
673;SDS011;319;48.764;9.174;2023-01-16T14:41:23;11.77;;;11.47;;
673;SDS011;319;48.764;9.174;2023-01-16T14:44:14;11.10;;;10.80;;
673;SDS011;319;48.764;9.174;2023-01-16T14:47:10;10.30;;;10.00;;
673;SDS011;319;48.764;9.174;2023-01-16T14:50:08;11.30;;;11.00;;
673;SDS011;319;48.764;9.174;2023-01-16T14:55:57;11.10;;;10.80;;
673;SDS011;319;48.764;9.174;2023-01-16T14:58:31;12.00;;;11.70;;
673;SDS011;319;48.764;9.174;2023-01-16T15:01:02;12.40;;;12.10;;
673;SDS011;319;48.764;9.174;2023-01-16T15:03:51;12.60;;;12.30;;
673;SDS011;319;48.764;9.174;2023-01-16T15:06:19;12.70;;;12.40;;
673;SDS011;319;48.764;9.174;2023-01-16T15:08:47;11.77;;;11.47;;
673;SDS011;319;48.764;9.174;2023-01-16T15:11:20;12.13;;;11.83;;
673;SDS011;319;48.764;9.174;2023-01-16T15:14:03;12.80;;;12.50;;
673;SDS011;319;48.764;9.174;2023-01-16T15:16:57;12.57;;;12.27;;
673;SDS011;319;48.764;9.174;2023-01-16T15:20:00;12.90;;;12.60;;
673;SDS011;319;48.764;9.174;2023-01-16T15:22:58;12.80;;;12.50;;
673;SDS011;319;48.764;9.174;2023-01-16T15:25:36;11.57;;;11.27;;
673;SDS011;319;48.764;9.174;2023-01-16T15:28:13;12.57;;;12.27;;
673;SDS011;319;48.764;9.174;2023-01-16T15:30:47;12.43;;;12.13;;
673;SDS011;319;48.764;9.174;2023-01-16T15:33:25;11.90;;;11.60;;
673;SDS011;319;48.764;9.174;2023-01-16T15:36:16;11.60;;;11.30;;
673;SDS011;319;48.764;9.174;2023-01-16T15:38:48;11.70;;;11.40;;
673;SDS011;319;48.764;9.174;2023-01-16T15:41:17;12.07;;;11.77;;
673;SDS011;319;48.764;9.174;2023-01-16T15:44:09;11.90;;;11.60;;
673;SDS011;319;48.764;9.174;2023-01-16T15:47:11;11.20;;;10.90;;
673;SDS011;319;48.764;9.174;2023-01-16T15:49:50;12.30;;;12.00;;
673;SDS011;319;48.764;9.174;2023-01-16T15:52:27;11.20;;;10.90;;
673;SDS011;319;48.764;9.174;2023-01-16T15:54:54;11.50;;;11.20;;
673;SDS011;319;48.764;9.174;2023-01-16T15:57:22;10.83;;;10.53;;
673;SDS011;319;48.764;9.174;2023-01-16T15:59:49;9.93;;;9.73;;
673;SDS011;319;48.764;9.174;2023-01-16T16:02:18;11.10;;;10.80;;
673;SDS011;319;48.764;9.174;2023-01-16T16:04:49;10.60;;;10.30;;
673;SDS011;319;48.764;9.174;2023-01-16T16:07:18;9.80;;;9.60;;
673;SDS011;319;48.764;9.174;2023-01-16T16:09:46;9.80;;;9.60;;
673;SDS011;319;48.764;9.174;2023-01-16T16:12:16;9.00;;;8.80;;
673;SDS011;319;48.764;9.174;2023-01-16T16:14:43;9.00;;;8.80;;
673;SDS011;319;48.764;9.174;2023-01-16T16:17:28;9.23;;;9.03;;
673;SDS011;319;48.764;9.174;2023-01-16T16:20:30;9.47;;;9.27;;
673;SDS011;319;48.764;9.174;2023-01-16T16:23:00;8.70;;;8.50;;
673;SDS011;319;48.764;9.174;2023-01-16T16:25:30;8.70;;;8.50;;
673;SDS011;319;48.764;9.174;2023-01-16T16:28:02;8.37;;;8.17;;
673;SDS011;319;48.764;9.174;2023-01-16T16:30:31;8.13;;;7.93;;
673;SDS011;319;48.764;9.174;2023-01-16T16:32:58;8.57;;;8.37;;